sensor_id;sensor_type;location;lat;lon;timestamp;pressure;altitude;pressure_sealevel;temperature;humidity
47761;BME280;33524;55.434;38.520;2023-02-26T00:00:20;98162.63;;;0.65;90.87
47761;BME280;33524;55.434;38.520;2023-02-26T00:02:49;98156.72;;;0.63;90.89
47761;BME280;33524;55.434;38.520;2023-02-26T00:05:19;98157.78;;;0.60;91.23
47761;BME280;33524;55.434;38.520;2023-02-26T00:07:49;98144.53;;;0.65;90.88
47761;BME280;33524;55.434;38.520;2023-02-26T00:10:18;98133.22;;;0.66;90.66
47761;BME280;33524;55.434;38.520;2023-02-26T00:12:48;98127.97;;;0.67;90.54
47761;BME280;33524;55.434;38.520;2023-02-26T00:15:19;98129.00;;;0.65;91.00
47761;BME280;33524;55.434;38.520;2023-02-26T00:17:58;98116.97;;;0.64;90.91
47761;BME280;33524;55.434;38.520;2023-02-26T00:20:29;98114.53;;;0.62;91.04
47761;BME280;33524;55.434;38.520;2023-02-26T00:22:59;98114.53;;;0.62;90.61
47761;BME280;33524;55.434;38.520;2023-02-26T00:25:29;98097.13;;;0.64;90.84
47761;BME280;33524;55.434;38.520;2023-02-26T00:27:59;98103.31;;;0.62;91.10
47761;BME280;33524;55.434;38.520;2023-02-26T00:30:32;98099.59;;;0.66;90.58
47761;BME280;33524;55.434;38.520;2023-02-26T00:33:02;98089.25;;;0.66;90.68
47761;BME280;33524;55.434;38.520;2023-02-26T00:35:33;98079.84;;;0.65;90.99
47761;BME280;33524;55.434;38.520;2023-02-26T00:38:07;98080.78;;;0.64;90.86
47761;BME280;33524;55.434;38.520;2023-02-26T00:40:46;98070.41;;;0.64;90.87
47761;BME280;33524;55.434;38.520;2023-02-26T00:43:22;98060.31;;;0.60;91.08
47761;BME280;33524;55.434;38.520;2023-02-26T00:51:44;98049.97;;;0.60;91.28
47761;BME280;33524;55.434;38.520;2023-02-26T00:54:21;98040.75;;;0.56;91.46
47761;BME280;33524;55.434;38.520;2023-02-26T00:56:53;98036.31;;;0.58;91.78
47761;BME280;33524;55.434;38.520;2023-02-26T00:59:25;98037.34;;;0.56;91.88
47761;BME280;33524;55.434;38.520;2023-02-26T01:01:55;98028.44;;;0.60;91.83
47761;BME280;33524;55.434;38.520;2023-02-26T01:04:25;98032.78;;;0.59;91.79
47761;BME280;33524;55.434;38.520;2023-02-26T01:06:56;98026.69;;;0.60;91.67
47761;BME280;33524;55.434;38.520;2023-02-26T01:09:28;98018.09;;;0.60;91.64
47761;BME280;33524;55.434;38.520;2023-02-26T01:12:02;97986.06;;;0.50;91.98
47761;BME280;33524;55.434;38.520;2023-02-26T01:14:34;97987.88;;;0.60;91.79
47761;BME280;33524;55.434;38.520;2023-02-26T01:17:14;97985.72;;;0.54;91.98
47761;BME280;33524;55.434;38.520;2023-02-26T01:23:00;97976.28;;;0.53;92.75
47761;BME280;33524;55.434;38.520;2023-02-26T01:25:50;97960.47;;;0.58;92.26
47761;BME280;33524;55.434;38.520;2023-02-26T01:28:24;97946.91;;;0.54;92.11
47761;BME280;33524;55.434;38.520;2023-02-26T01:31:00;97956.44;;;0.54;92.43
47761;BME280;33524;55.434;38.520;2023-02-26T01:33:44;97950.22;;;0.56;92.07
47761;BME280;33524;55.434;38.520;2023-02-26T01:36:23;97939.06;;;0.56;92.30
47761;BME280;33524;55.434;38.520;2023-02-26T01:41:53;97978.56;;;0.58;91.87
47761;BME280;33524;55.434;38.520;2023-02-26T01:44:26;97974.00;;;0.62;91.81
47761;BME280;33524;55.434;38.520;2023-02-26T01:49:34;97958.72;;;0.58;92.15
47761;BME280;33524;55.434;38.520;2023-02-26T01:52:06;97954.34;;;0.59;92.22
47761;BME280;33524;55.434;38.520;2023-02-26T01:54:54;97950.13;;;0.58;92.04
47761;BME280;33524;55.434;38.520;2023-02-26T01:57:24;97943.81;;;0.62;91.87
47761;BME280;33524;55.434;38.520;2023-02-26T01:59:54;97936.88;;;0.63;91.79
47761;BME280;33524;55.434;38.520;2023-02-26T02:02:26;97928.37;;;0.60;91.69
47761;BME280;33524;55.434;38.520;2023-02-26T02:04:57;97924.03;;;0.61;91.68
47761;BME280;33524;55.434;38.520;2023-02-26T02:07:31;97923.13;;;0.62;91.82
47761;BME280;33524;55.434;38.520;2023-02-26T02:10:02;97906.75;;;0.62;91.85
47761;BME280;33524;55.434;38.520;2023-02-26T02:12:40;97914.03;;;0.56;91.92
47761;BME280;33524;55.434;38.520;2023-02-26T02:15:22;97898.69;;;0.53;91.81
47761;BME280;33524;55.434;38.520;2023-02-26T02:18:17;97894.47;;;0.52;91.67
47761;BME280;33524;55.434;38.520;2023-02-26T02:35:33;97915.28;;;0.51;91.26
47761;BME280;33524;55.434;38.520;2023-02-26T02:38:03;97909.19;;;0.52;91.21
47761;BME280;33524;55.434;38.520;2023-02-26T02:40:38;97893.75;;;0.50;91.57
47761;BME280;33524;55.434;38.520;2023-02-26T02:43:14;97903.41;;;0.48;91.40
47761;BME280;33524;55.434;38.520;2023-02-26T02:45:53;97887.34;;;0.43;91.52
47761;BME280;33524;55.434;38.520;2023-02-26T02:48:29;97882.19;;;0.43;91.61
47761;BME280;33524;55.434;38.520;2023-02-26T02:51:07;97874.44;;;0.43;91.50
47761;BME280;33524;55.434;38.520;2023-02-26T02:53:41;97877.62;;;0.47;91.41
47761;BME280;33524;55.434;38.520;2023-02-26T02:56:16;97866.13;;;0.51;90.92
47761;BME280;33524;55.434;38.520;2023-02-26T02:58:54;97864.00;;;0.45;91.47
47761;BME280;33524;55.434;38.520;2023-02-26T03:01:27;97859.44;;;0.48;90.90
47761;BME280;33524;55.434;38.520;2023-02-26T03:04:14;97856.03;;;0.48;91.24
47761;BME280;33524;55.434;38.520;2023-02-26T03:06:44;97852.81;;;0.44;91.06
47761;BME280;33524;55.434;38.520;2023-02-26T03:09:18;97848.84;;;0.51;91.07
47761;BME280;33524;55.434;38.520;2023-02-26T03:11:47;97854.34;;;0.47;91.68
47761;BME280;33524;55.434;38.520;2023-02-26T03:14:17;97852.59;;;0.47;91.66
47761;BME280;33524;55.434;38.520;2023-02-26T03:23:44;97852.16;;;0.53;91.38
47761;BME280;33524;55.434;38.520;2023-02-26T03:25:26;97845.53;;;0.49;91.76
47761;BME280;33524;55.434;38.520;2023-02-26T03:28:06;97843.47;;;0.54;91.46
47761;BME280;33524;55.434;38.520;2023-02-26T03:30:46;97831.47;;;0.53;91.61
47761;BME280;33524;55.434;38.520;2023-02-26T03:36:13;97830.03;;;0.49;91.71
47761;BME280;33524;55.434;38.520;2023-02-26T03:39:17;97839.94;;;0.55;92.04
47761;BME280;33524;55.434;38.520;2023-02-26T03:42:00;97841.81;;;0.53;92.24
47761;BME280;33524;55.434;38.520;2023-02-26T03:44:38;97835.81;;;0.53;92.10
47761;BME280;33524;55.434;38.520;2023-02-26T03:47:13;97832.19;;;0.55;91.81
47761;BME280;33524;55.434;38.520;2023-02-26T03:49:58;97836.44;;;0.56;91.69
47761;BME280;33524;55.434;38.520;2023-02-26T03:52:33;97833.12;;;0.54;91.93
47761;BME280;33524;55.434;38.520;2023-02-26T03:55:11;97833.94;;;0.55;91.94
47761;BME280;33524;55.434;38.520;2023-02-26T03:57:45;97843.22;;;0.57;91.74
47761;BME280;33524;55.434;38.520;2023-02-26T04:00:16;97845.09;;;0.55;91.76
47761;BME280;33524;55.434;38.520;2023-02-26T04:02:58;97845.81;;;0.57;92.13
47761;BME280;33524;55.434;38.520;2023-02-26T04:05:34;97842.41;;;0.57;91.90
47761;BME280;33524;55.434;38.520;2023-02-26T04:08:06;97833.56;;;0.48;92.00
47761;BME280;33524;55.434;38.520;2023-02-26T04:10:50;97849.56;;;0.53;92.57
47761;BME280;33524;55.434;38.520;2023-02-26T04:13:21;97856.31;;;0.56;92.24
47761;BME280;33524;55.434;38.520;2023-02-26T04:15:51;97854.44;;;0.58;92.12
47761;BME280;33524;55.434;38.520;2023-02-26T04:18:20;97864.78;;;0.58;92.63
47761;BME280;33524;55.434;38.520;2023-02-26T04:20:50;97866.31;;;0.60;92.14
47761;BME280;33524;55.434;38.520;2023-02-26T04:23:20;97866.31;;;0.60;93.81
47761;BME280;33524;55.434;38.520;2023-02-26T04:25:50;97877.38;;;0.63;91.59
47761;BME280;33524;55.434;38.520;2023-02-26T04:28:19;97880.88;;;0.62;91.99
47761;BME280;33524;55.434;38.520;2023-02-26T04:30:50;97882.31;;;0.66;93.50
47761;BME280;33524;55.434;38.520;2023-02-26T04:33:20;97888.44;;;0.65;92.96
47761;BME280;33524;55.434;38.520;2023-02-26T04:35:52;97885.03;;;0.64;92.47
47761;BME280;33524;55.434;38.520;2023-02-26T04:38:22;97892.78;;;0.64;93.64
47761;BME280;33524;55.434;38.520;2023-02-26T04:40:52;97892.31;;;0.70;93.30
47761;BME280;33524;55.434;38.520;2023-02-26T04:43:23;97901.84;;;0.70;95.26
47761;BME280;33524;55.434;38.520;2023-02-26T04:45:52;97902.66;;;0.70;94.79
47761;BME280;33524;55.434;38.520;2023-02-26T04:48:22;97910.22;;;0.73;95.74
47761;BME280;33524;55.434;38.520;2023-02-26T04:50:51;97915.28;;;0.75;94.66
47761;BME280;33524;55.434;38.520;2023-02-26T04:53:24;97910.59;;;0.80;96.40
47761;BME280;33524;55.434;38.520;2023-02-26T04:55:55;97912.25;;;0.81;97.39
47761;BME280;33524;55.434;38.520;2023-02-26T04:58:25;97919.06;;;0.82;94.92
47761;BME280;33524;55.434;38.520;2023-02-26T05:00:57;97921.59;;;0.95;98.00
47761;BME280;33524;55.434;38.520;2023-02-26T05:03:27;97925.75;;;0.97;98.03
47761;BME280;33524;55.434;38.520;2023-02-26T05:05:57;97927.87;;;1.04;98.82
47761;BME280;33524;55.434;38.520;2023-02-26T05:08:27;97940.03;;;1.14;98.96
47761;BME280;33524;55.434;38.520;2023-02-26T05:10:57;97944.97;;;1.17;98.75
47761;BME280;33524;55.434;38.520;2023-02-26T05:13:27;97948.06;;;1.23;99.21
47761;BME280;33524;55.434;38.520;2023-02-26T05:15:56;97954.16;;;1.10;96.04
47761;BME280;33524;55.434;38.520;2023-02-26T05:18:26;97953.84;;;1.26;98.65
47761;BME280;33524;55.434;38.520;2023-02-26T05:20:57;97957.87;;;1.30;98.62
47761;BME280;33524;55.434;38.520;2023-02-26T05:23:27;97963.75;;;1.32;98.31
47761;BME280;33524;55.434;38.520;2023-02-26T05:25:57;97967.75;;;1.36;98.63
47761;BME280;33524;55.434;38.520;2023-02-26T05:28:29;97969.69;;;1.46;99.54
47761;BME280;33524;55.434;38.520;2023-02-26T05:30:59;97976.84;;;1.42;99.16
47761;BME280;33524;55.434;38.520;2023-02-26T05:33:28;97975.78;;;1.45;98.89
47761;BME280;33524;55.434;38.520;2023-02-26T05:36:00;97990.75;;;1.41;95.97
47761;BME280;33524;55.434;38.520;2023-02-26T05:38:32;97994.69;;;1.58;98.64
47761;BME280;33524;55.434;38.520;2023-02-26T05:41:01;98006.47;;;1.62;98.40
47761;BME280;33524;55.434;38.520;2023-02-26T05:43:34;98001.66;;;1.69;98.37
47761;BME280;33524;55.434;38.520;2023-02-26T05:46:03;97995.19;;;1.74;96.89
47761;BME280;33524;55.434;38.520;2023-02-26T05:48:34;98000.12;;;1.77;95.67
47761;BME280;33524;55.434;38.520;2023-02-26T05:51:06;98003.72;;;1.99;95.63
47761;BME280;33524;55.434;38.520;2023-02-26T05:53:36;98017.25;;;1.91;93.68
47761;BME280;33524;55.434;38.520;2023-02-26T05:56:05;98015.94;;;1.74;93.05
47761;BME280;33524;55.434;38.520;2023-02-26T05:58:35;98022.50;;;1.67;93.51
47761;BME280;33524;55.434;38.520;2023-02-26T06:01:05;98025.59;;;1.84;94.34
47761;BME280;33524;55.434;38.520;2023-02-26T06:03:38;98021.25;;;1.84;91.26
47761;BME280;33524;55.434;38.520;2023-02-26T06:06:13;98040.22;;;1.85;90.41
47761;BME280;33524;55.434;38.520;2023-02-26T06:08:47;98047.94;;;1.73;89.90
47761;BME280;33524;55.434;38.520;2023-02-26T06:11:17;98048.91;;;1.72;90.88
47761;BME280;33524;55.434;38.520;2023-02-26T06:13:47;98066.97;;;1.61;90.74
47761;BME280;33524;55.434;38.520;2023-02-26T06:16:16;98066.00;;;1.51;89.76
47761;BME280;33524;55.434;38.520;2023-02-26T06:18:49;98066.41;;;1.33;90.28
47761;BME280;33524;55.434;38.520;2023-02-26T06:21:18;98071.84;;;1.41;89.93
47761;BME280;33524;55.434;38.520;2023-02-26T06:23:48;98076.66;;;1.35;89.66
47761;BME280;33524;55.434;38.520;2023-02-26T06:26:17;98086.97;;;1.48;88.99
47761;BME280;33524;55.434;38.520;2023-02-26T06:28:51;98088.16;;;1.55;87.13
47761;BME280;33524;55.434;38.520;2023-02-26T06:31:20;98093.66;;;1.74;86.36
47761;BME280;33524;55.434;38.520;2023-02-26T06:33:50;98091.88;;;1.99;84.83
47761;BME280;33524;55.434;38.520;2023-02-26T06:36:20;98105.72;;;2.22;83.95
47761;BME280;33524;55.434;38.520;2023-02-26T06:38:49;98101.25;;;2.58;81.98
47761;BME280;33524;55.434;38.520;2023-02-26T06:41:19;98111.53;;;2.48;81.29
47761;BME280;33524;55.434;38.520;2023-02-26T06:43:49;98104.22;;;2.42;80.21
47761;BME280;33524;55.434;38.520;2023-02-26T06:46:18;98107.38;;;2.34;80.35
47761;BME280;33524;55.434;38.520;2023-02-26T06:48:52;98118.94;;;2.30;80.77
47761;BME280;33524;55.434;38.520;2023-02-26T06:51:21;98121.88;;;2.26;80.82
47761;BME280;33524;55.434;38.520;2023-02-26T06:53:50;98123.88;;;2.33;80.51
47761;BME280;33524;55.434;38.520;2023-02-26T06:56:20;98142.19;;;2.43;79.79
47761;BME280;33524;55.434;38.520;2023-02-26T06:58:54;98143.00;;;2.43;80.47
47761;BME280;33524;55.434;38.520;2023-02-26T07:01:24;98141.97;;;2.69;78.49
47761;BME280;33524;55.434;38.520;2023-02-26T07:03:53;98143.75;;;2.68;78.36
47761;BME280;33524;55.434;38.520;2023-02-26T07:06:23;98152.16;;;2.25;80.10
47761;BME280;33524;55.434;38.520;2023-02-26T07:08:55;98151.06;;;2.63;77.71
47761;BME280;33524;55.434;38.520;2023-02-26T07:11:25;98151.41;;;2.58;78.25
47761;BME280;33524;55.434;38.520;2023-02-26T07:13:54;98160.62;;;2.74;77.82
47761;BME280;33524;55.434;38.520;2023-02-26T07:16:25;98157.03;;;2.41;78.29
47761;BME280;33524;55.434;38.520;2023-02-26T07:18:57;98150.94;;;2.65;78.26
47761;BME280;33524;55.434;38.520;2023-02-26T07:21:31;98156.59;;;2.58;77.76
47761;BME280;33524;55.434;38.520;2023-02-26T07:24:01;98166.28;;;2.68;77.84
47761;BME280;33524;55.434;38.520;2023-02-26T07:26:31;98167.44;;;2.75;77.79
47761;BME280;33524;55.434;38.520;2023-02-26T07:29:00;98169.94;;;2.76;77.43
47761;BME280;33524;55.434;38.520;2023-02-26T07:31:35;98172.03;;;2.60;77.66
47761;BME280;33524;55.434;38.520;2023-02-26T07:34:05;98174.06;;;2.56;77.98
47761;BME280;33524;55.434;38.520;2023-02-26T07:36:36;98175.44;;;2.38;78.91
47761;BME280;33524;55.434;38.520;2023-02-26T07:39:06;98182.53;;;2.47;78.26
47761;BME280;33524;55.434;38.520;2023-02-26T07:41:38;98185.03;;;2.25;79.12
47761;BME280;33524;55.434;38.520;2023-02-26T07:44:13;98194.34;;;2.27;79.29
47761;BME280;33524;55.434;38.520;2023-02-26T07:46:46;98200.97;;;2.31;79.21
47761;BME280;33524;55.434;38.520;2023-02-26T07:49:18;98201.41;;;2.14;79.78
47761;BME280;33524;55.434;38.520;2023-02-26T07:51:48;98208.03;;;2.29;79.29
47761;BME280;33524;55.434;38.520;2023-02-26T07:54:18;98207.12;;;2.06;80.28
47761;BME280;33524;55.434;38.520;2023-02-26T07:56:48;98205.94;;;2.34;78.31
47761;BME280;33524;55.434;38.520;2023-02-26T07:59:18;98204.25;;;2.57;77.52
47761;BME280;33524;55.434;38.520;2023-02-26T08:01:49;98204.97;;;2.59;77.17
47761;BME280;33524;55.434;38.520;2023-02-26T08:04:21;98214.59;;;2.46;77.96
47761;BME280;33524;55.434;38.520;2023-02-26T08:06:51;98213.59;;;2.71;76.33
47761;BME280;33524;55.434;38.520;2023-02-26T08:09:23;98213.91;;;2.55;76.95
47761;BME280;33524;55.434;38.520;2023-02-26T08:11:54;98223.63;;;2.76;75.65
47761;BME280;33524;55.434;38.520;2023-02-26T08:14:24;98227.41;;;2.83;76.00
47761;BME280;33524;55.434;38.520;2023-02-26T08:16:55;98242.09;;;2.60;76.72
47761;BME280;33524;55.434;38.520;2023-02-26T08:19:26;98234.41;;;2.94;74.40
47761;BME280;33524;55.434;38.520;2023-02-26T08:21:55;98236.81;;;2.73;75.69
47761;BME280;33524;55.434;38.520;2023-02-26T08:24:26;98249.03;;;2.83;75.41
47761;BME280;33524;55.434;38.520;2023-02-26T08:26:55;98247.59;;;2.91;74.59
47761;BME280;33524;55.434;38.520;2023-02-26T08:29:26;98251.66;;;3.06;73.11
47761;BME280;33524;55.434;38.520;2023-02-26T08:31:57;98261.94;;;2.61;74.55
47761;BME280;33524;55.434;38.520;2023-02-26T08:34:28;98263.03;;;2.70;74.06
47761;BME280;33524;55.434;38.520;2023-02-26T08:36:57;98269.13;;;2.69;74.55
47761;BME280;33524;55.434;38.520;2023-02-26T08:39:28;98272.59;;;2.69;74.33
47761;BME280;33524;55.434;38.520;2023-02-26T08:42:01;98276.69;;;2.60;74.45
47761;BME280;33524;55.434;38.520;2023-02-26T08:44:31;98289.13;;;2.44;75.86
47761;BME280;33524;55.434;38.520;2023-02-26T08:47:03;98289.72;;;1.99;79.23
47761;BME280;33524;55.434;38.520;2023-02-26T08:49:34;98288.28;;;1.95;80.99
47761;BME280;33524;55.434;38.520;2023-02-26T08:52:05;98291.06;;;2.05;81.67
47761;BME280;33524;55.434;38.520;2023-02-26T08:54:35;98291.78;;;2.07;81.96
47761;BME280;33524;55.434;38.520;2023-02-26T08:57:05;98294.84;;;2.12;82.10
47761;BME280;33524;55.434;38.520;2023-02-26T08:59:36;98308.37;;;2.29;81.70
47761;BME280;33524;55.434;38.520;2023-02-26T09:02:06;98295.25;;;2.43;81.24
47761;BME280;33524;55.434;38.520;2023-02-26T09:04:36;98294.47;;;2.54;80.10
47761;BME280;33524;55.434;38.520;2023-02-26T09:07:06;98302.37;;;2.52;77.75
47761;BME280;33524;55.434;38.520;2023-02-26T09:09:36;98292.81;;;2.29;76.26
47761;BME280;33524;55.434;38.520;2023-02-26T09:12:08;98294.09;;;2.47;74.65
47761;BME280;33524;55.434;38.520;2023-02-26T09:14:38;98295.69;;;2.61;74.88
47761;BME280;33524;55.434;38.520;2023-02-26T09:17:08;98304.53;;;2.34;75.96
47761;BME280;33524;55.434;38.520;2023-02-26T09:19:38;98293.81;;;2.63;73.86
47761;BME280;33524;55.434;38.520;2023-02-26T09:22:08;98307.63;;;2.75;73.44
47761;BME280;33524;55.434;38.520;2023-02-26T09:24:38;98312.41;;;2.33;76.14
47761;BME280;33524;55.434;38.520;2023-02-26T09:27:08;98322.88;;;2.07;77.84
47761;BME280;33524;55.434;38.520;2023-02-26T09:29:39;98323.94;;;2.29;76.14
47761;BME280;33524;55.434;38.520;2023-02-26T09:32:09;98322.84;;;2.20;75.12
47761;BME280;33524;55.434;38.520;2023-02-26T09:34:40;98321.84;;;2.58;73.33
47761;BME280;33524;55.434;38.520;2023-02-26T09:37:10;98312.75;;;2.52;73.83
47761;BME280;33524;55.434;38.520;2023-02-26T09:39:41;98336.56;;;2.46;74.39
47761;BME280;33524;55.434;38.520;2023-02-26T09:45:06;98353.81;;;2.34;74.44
47761;BME280;33524;55.434;38.520;2023-02-26T09:47:47;98372.72;;;2.60;72.95
47761;BME280;33524;55.434;38.520;2023-02-26T09:50:25;98373.97;;;2.55;74.60
47761;BME280;33524;55.434;38.520;2023-02-26T09:53:04;98384.84;;;2.60;75.06
47761;BME280;33524;55.434;38.520;2023-02-26T09:55:42;98391.84;;;2.47;77.65
47761;BME280;33524;55.434;38.520;2023-02-26T09:58:34;98401.19;;;2.49;80.07
47761;BME280;33524;55.434;38.520;2023-02-26T10:01:25;98397.28;;;2.68;80.01
47761;BME280;33524;55.434;38.520;2023-02-26T10:04:10;98400.34;;;2.97;80.15
47761;BME280;33524;55.434;38.520;2023-02-26T10:12:22;98414.69;;;2.54;78.12
47761;BME280;33524;55.434;38.520;2023-02-26T10:15:00;98398.59;;;2.49;78.38
47761;BME280;33524;55.434;38.520;2023-02-26T10:17:51;98420.94;;;2.39;78.66
47761;BME280;33524;55.434;38.520;2023-02-26T10:20:33;98421.69;;;2.28;78.07
47761;BME280;33524;55.434;38.520;2023-02-26T10:23:19;98421.16;;;2.23;78.64
47761;BME280;33524;55.434;38.520;2023-02-26T10:25:57;98418.47;;;2.25;78.96
47761;BME280;33524;55.434;38.520;2023-02-26T10:28:40;98427.00;;;2.14;78.49
47761;BME280;33524;55.434;38.520;2023-02-26T10:31:42;98411.91;;;1.95;77.54
47761;BME280;33524;55.434;38.520;2023-02-26T10:34:31;98421.00;;;1.88;77.31
47761;BME280;33524;55.434;38.520;2023-02-26T10:37:43;98431.69;;;1.96;77.69
47761;BME280;33524;55.434;38.520;2023-02-26T10:41:21;98439.03;;;2.15;77.41
47761;BME280;33524;55.434;38.520;2023-02-26T10:46:31;98430.91;;;2.32;77.22
47761;BME280;33524;55.434;38.520;2023-02-26T10:51:56;98444.28;;;2.39;76.95
47761;BME280;33524;55.434;38.520;2023-02-26T10:54:36;98445.16;;;2.63;76.53
47761;BME280;33524;55.434;38.520;2023-02-26T10:57:18;98449.47;;;2.76;76.16
47761;BME280;33524;55.434;38.520;2023-02-26T10:59:50;98448.06;;;2.83;75.79
47761;BME280;33524;55.434;38.520;2023-02-26T11:02:40;98442.41;;;2.78;75.81
47761;BME280;33524;55.434;38.520;2023-02-26T11:05:16;98443.41;;;2.88;75.29
47761;BME280;33524;55.434;38.520;2023-02-26T11:07:50;98450.72;;;2.70;75.38
47761;BME280;33524;55.434;38.520;2023-02-26T11:10:24;98432.16;;;2.63;75.35
47761;BME280;33524;55.434;38.520;2023-02-26T11:12:55;98451.72;;;2.80;75.10
47761;BME280;33524;55.434;38.520;2023-02-26T11:15:28;98452.13;;;2.87;74.19
47761;BME280;33524;55.434;38.520;2023-02-26T11:17:59;98458.19;;;2.75;74.35
47761;BME280;33524;55.434;38.520;2023-02-26T11:20:36;98457.25;;;2.76;74.47
47761;BME280;33524;55.434;38.520;2023-02-26T11:23:12;98459.50;;;2.56;75.76
47761;BME280;33524;55.434;38.520;2023-02-26T11:25:44;98466.03;;;2.86;74.13
47761;BME280;33524;55.434;38.520;2023-02-26T11:28:29;98460.91;;;2.97;73.16
47761;BME280;33524;55.434;38.520;2023-02-26T11:31:05;98463.22;;;2.89;73.68
47761;BME280;33524;55.434;38.520;2023-02-26T11:33:38;98460.91;;;3.21;72.74
47761;BME280;33524;55.434;38.520;2023-02-26T11:36:14;98459.63;;;3.27;71.67
47761;BME280;33524;55.434;38.520;2023-02-26T11:38:46;98458.38;;;3.09;71.95
47761;BME280;33524;55.434;38.520;2023-02-26T11:41:22;98449.38;;;3.37;70.85
47761;BME280;33524;55.434;38.520;2023-02-26T11:44:00;98454.19;;;3.30;70.73
47761;BME280;33524;55.434;38.520;2023-02-26T11:46:38;98461.13;;;3.54;67.77
47761;BME280;33524;55.434;38.520;2023-02-26T11:49:12;98459.81;;;3.48;66.79
47761;BME280;33524;55.434;38.520;2023-02-26T11:51:46;98464.47;;;3.32;66.44
47761;BME280;33524;55.434;38.520;2023-02-26T11:54:21;98467.53;;;3.26;67.30
47761;BME280;33524;55.434;38.520;2023-02-26T11:57:05;98462.34;;;3.01;68.46
47761;BME280;33524;55.434;38.520;2023-02-26T11:59:39;98454.22;;;2.82;69.72
47761;BME280;33524;55.434;38.520;2023-02-26T12:02:12;98459.16;;;2.98;68.64
47761;BME280;33524;55.434;38.520;2023-02-26T12:04:45;98466.31;;;2.94;67.83
47761;BME280;33524;55.434;38.520;2023-02-26T12:07:16;98462.34;;;2.77;67.67
47761;BME280;33524;55.434;38.520;2023-02-26T12:09:48;98456.47;;;2.87;67.99
47761;BME280;33524;55.434;38.520;2023-02-26T12:15:08;98463.22;;;2.65;71.00
47761;BME280;33524;55.434;38.520;2023-02-26T12:20:28;98451.13;;;2.77;68.37
47761;BME280;33524;55.434;38.520;2023-02-26T12:26:15;98462.44;;;2.76;68.82
47761;BME280;33524;55.434;38.520;2023-02-26T12:29:16;98463.72;;;2.94;64.80
47761;BME280;33524;55.434;38.520;2023-02-26T12:32:03;98461.69;;;2.62;69.28
47761;BME280;33524;55.434;38.520;2023-02-26T12:34:57;98440.47;;;2.32;71.02
47761;BME280;33524;55.434;38.520;2023-02-26T12:51:37;98479.31;;;2.57;65.91
47761;BME280;33524;55.434;38.520;2023-02-26T13:03:22;98481.16;;;2.18;67.52
47761;BME280;33524;55.434;38.520;2023-02-26T13:09:23;98480.12;;;2.08;69.31
47761;BME280;33524;55.434;38.520;2023-02-26T13:15:16;98505.63;;;2.14;68.53
47761;BME280;33524;55.434;38.520;2023-02-26T13:18:08;98500.66;;;1.98;69.08
47761;BME280;33524;55.434;38.520;2023-02-26T13:20:53;98519.00;;;2.08;67.04
47761;BME280;33524;55.434;38.520;2023-02-26T13:23:32;98508.53;;;1.97;69.46
47761;BME280;33524;55.434;38.520;2023-02-26T13:26:08;98514.13;;;2.04;65.77
47761;BME280;33524;55.434;38.520;2023-02-26T13:28:49;98515.78;;;2.05;67.06
47761;BME280;33524;55.434;38.520;2023-02-26T13:34:12;98516.31;;;2.10;68.51
47761;BME280;33524;55.434;38.520;2023-02-26T13:36:45;98512.91;;;2.09;66.42
47761;BME280;33524;55.434;38.520;2023-02-26T13:39:59;98515.50;;;2.09;65.93
47761;BME280;33524;55.434;38.520;2023-02-26T13:42:42;98516.63;;;2.05;66.91
47761;BME280;33524;55.434;38.520;2023-02-26T13:51:46;98535.19;;;1.99;66.03
47761;BME280;33524;55.434;38.520;2023-02-26T13:53:45;98533.44;;;1.99;65.41
47761;BME280;33524;55.434;38.520;2023-02-26T13:56:23;98538.37;;;1.90;67.72
47761;BME280;33524;55.434;38.520;2023-02-26T13:59:34;98515.59;;;1.95;63.58
47761;BME280;33524;55.434;38.520;2023-02-26T14:02:58;98523.66;;;1.77;69.30
47761;BME280;33524;55.434;38.520;2023-02-26T14:05:52;98529.47;;;1.81;66.77
47761;BME280;33524;55.434;38.520;2023-02-26T14:08:43;98524.69;;;1.62;68.40
47761;BME280;33524;55.434;38.520;2023-02-26T14:11:41;98532.03;;;1.68;70.85
47761;BME280;33524;55.434;38.520;2023-02-26T14:14:22;98547.69;;;1.67;70.55
47761;BME280;33524;55.434;38.520;2023-02-26T14:19:44;98559.09;;;1.64;67.84
47761;BME280;33524;55.434;38.520;2023-02-26T14:22:41;98556.59;;;1.62;67.84
47761;BME280;33524;55.434;38.520;2023-02-26T14:27:47;98560.22;;;1.60;67.72
47761;BME280;33524;55.434;38.520;2023-02-26T14:30:27;98566.13;;;1.62;67.60
47761;BME280;33524;55.434;38.520;2023-02-26T14:35:49;98574.09;;;1.59;68.21
47761;BME280;33524;55.434;38.520;2023-02-26T14:38:29;98567.44;;;1.55;67.27
47761;BME280;33524;55.434;38.520;2023-02-26T14:41:31;98568.91;;;1.59;66.79
47761;BME280;33524;55.434;38.520;2023-02-26T14:44:10;98568.09;;;1.58;68.54
47761;BME280;33524;55.434;38.520;2023-02-26T14:46:43;98577.63;;;1.58;66.27
47761;BME280;33524;55.434;38.520;2023-02-26T14:49:23;98580.63;;;1.52;66.41
47761;BME280;33524;55.434;38.520;2023-02-26T14:52:20;98593.00;;;1.47;67.66
47761;BME280;33524;55.434;38.520;2023-02-26T14:55:07;98617.16;;;1.20;71.41
47761;BME280;33524;55.434;38.520;2023-02-26T15:07:00;98665.16;;;0.09;85.93
47761;BME280;33524;55.434;38.520;2023-02-26T15:18:56;98677.81;;;-0.48;88.75
47761;BME280;33524;55.434;38.520;2023-02-26T15:22:37;98674.66;;;-0.53;88.38
47761;BME280;33524;55.434;38.520;2023-02-26T15:24:35;98687.63;;;-0.71;90.62
47761;BME280;33524;55.434;38.520;2023-02-26T15:27:09;98689.91;;;-0.80;90.44
47761;BME280;33524;55.434;38.520;2023-02-26T15:29:43;98691.13;;;-0.88;91.24
47761;BME280;33524;55.434;38.520;2023-02-26T15:32:29;98700.44;;;-0.85;91.64
47761;BME280;33524;55.434;38.520;2023-02-26T15:35:16;98716.50;;;-0.96;90.57
47761;BME280;33524;55.434;38.520;2023-02-26T15:37:53;98731.94;;;-0.78;90.57
47761;BME280;33524;55.434;38.520;2023-02-26T15:40:32;98746.16;;;-0.87;89.79
47761;BME280;33524;55.434;38.520;2023-02-26T15:43:05;98743.31;;;-0.98;89.92
47761;BME280;33524;55.434;38.520;2023-02-26T15:45:44;98757.28;;;-1.20;89.57
47761;BME280;33524;55.434;38.520;2023-02-26T15:48:20;98776.88;;;-1.33;90.28